Latest Weather Observations for Nullo Mountain

IDN60801

Issued at 11:05 pm EDT Wednesday 26 November 2014 (issued every 30 minutes, with the page automatically refreshed every 10 minutes)

About weather observations | Map of weather stations | Latest weather observations for NSW | Other Formats
Station Details ID: 062100 Name: NULLO MOUNTAIN AWS Lat: -32.72 Lon: 150.23 Height: 1130.0 m
Data from the previous 72 hours. | See also: Recent months at Nullo Mountain
Date/Time
EDT
Temp
°C
App
Temp
°C
Dew
Point
Rel
Hum
%
Delta-T
°C
Wind Press
QNH
hPa
Press
MSL
hPa
Rain
since 9 am
mm
Dir
 
Spd
km/h
Gust
km/h
Spd
kts
Gust
kts
26/11:00pm 14.8 13.5 14.8 100 0.0 ESE 15 22 8 12 - - 0.0
26/10:30pm 14.8 14.2 14.6 99 0.1 ESE 11 15 6 8 - - 0.0
26/10:00pm 15.3 14.7 14.5 95 0.5 ESE 11 15 6 8 - - 0.0
26/09:30pm 16.1 15.5 14.6 91 0.9 E 11 15 6 8 - - 0.0
26/09:00pm 16.4 15.4 14.6 89 1.1 E 13 19 7 10 - - 0.0
26/08:30pm 17.0 15.8 14.1 83 1.7 E 13 19 7 10 - - 0.0
26/08:00pm 18.4 17.5 12.6 69 3.4 SE 9 17 5 9 - - 0.0
26/07:30pm 20.9 18.9 6.1 38 7.9 WSW 6 9 3 5 - - 0.0
26/07:00pm 22.3 20.4 7.7 39 8.0 W 7 15 4 8 - - 0.0
26/06:30pm 22.5 20.5 6.3 35 8.7 NW 6 11 3 6 - - 0.0
26/06:00pm 23.7 22.1 8.2 37 8.7 WNW 6 13 3 7 - - 0.0
26/05:30pm 23.5 20.8 7.2 35 9.0 NW 11 19 6 10 - - 0.0
26/05:00pm 23.6 21.4 7.7 36 8.8 WNW 9 24 5 13 - - 0.0
26/04:30pm 23.3 20.4 8.2 38 8.4 W 13 24 7 13 - - 0.0
26/04:00pm 23.5 21.4 9.9 42 7.8 WNW 11 24 6 13 - - 0.0
26/03:30pm 21.3 19.0 10.5 50 6.2 NW 13 22 7 12 - - 0.0
26/03:00pm 22.1 21.0 11.8 52 6.1 NW 9 19 5 10 - - 0.0
26/02:30pm 22.6 21.6 13.4 56 5.6 NW 11 24 6 13 - - 0.0
26/02:00pm 20.3 17.5 11.5 57 5.1 NNW 17 28 9 15 - - 0.0
26/01:30pm 20.7 17.7 12.1 58 5.1 NW 19 32 10 17 - - 0.0
26/01:00pm 20.5 19.5 13.5 64 4.2 NW 11 19 6 10 - - 0.0
26/12:30pm 18.6 17.6 13.5 72 3.1 NNW 11 19 6 10 - - 0.0
26/12:00pm 16.9 16.7 14.7 87 1.3 NNW 9 15 5 8 - - 0.0
26/11:30am 15.0 15.9 15.0 100 0.0 WSW 4 7 2 4 - - 0.0
26/11:00am 13.7 13.7 13.7 100 0.0 SE 6 7 3 4 - - 0.0
26/10:30am 13.6 13.6 13.6 100 0.0 E 6 7 3 4 - - 0.0
26/10:00am 14.0 14.1 14.0 100 0.0 E 6 7 3 4 - - 0.0
26/09:30am 13.2 13.1 13.2 100 0.0 E 6 9 3 5 - - 0.0
26/09:00am 13.0 12.2 13.0 100 0.0 E 9 15 5 8 - - 0.2
26/08:30am 12.8 11.6 12.8 100 0.0 E 11 19 6 10 - - 0.2
26/08:00am 12.1 10.7 12.1 100 0.0 E 11 17 6 9 - - 0.0
26/07:30am 11.9 9.6 11.9 100 0.0 E 15 22 8 12 - - 0.0
26/07:00am 11.7 9.0 11.7 100 0.0 E 17 26 9 14 - - 0.0
26/06:30am 11.5 8.4 11.5 100 0.0 E 19 28 10 15 - - 0.0
26/06:00am 11.2 8.4 11.2 100 0.0 E 17 24 9 13 - - 0.0
26/05:30am 11.2 8.4 11.2 100 0.0 E 17 24 9 13 - - 0.0
26/05:00am 11.1 7.9 11.1 100 0.0 E 19 24 10 13 - - 0.0
26/04:30am 11.1 7.7 11.1 100 0.0 E 20 30 11 16 - - 0.0
26/04:00am 11.3 7.9 11.3 100 0.0 E 20 28 11 15 - - 0.0
26/03:30am 11.2 7.8 11.2 100 0.0 E 20 26 11 14 - - 0.0
26/03:00am 11.2 8.0 11.2 100 0.0 E 19 26 10 14 - - 0.0
26/02:30am - - - - - E 17 22 9 12 - - 0.0
26/02:00am - - - - - E 17 24 9 13 - - 0.0
26/01:30am - - - - - E 17 22 9 12 - - 0.0
26/01:00am - - - - - E 17 20 9 11 - - 0.0
26/12:30am - - - - - E 15 22 8 12 - - 0.0
26/12:00am - - - - - E 11 17 6 9 - - 0.0
 
Date/Time
EDT
Temp
°C
App
Temp
°C
Dew
Point
Rel
Hum
%
Delta-T
°C
Wind Press
QNH
hPa
Press
MSL
hPa
Rain
since 9 am
mm
Dir
 
Spd
km/h
Gust
km/h
Spd
kts
Gust
kts
25/11:30pm 12.1 9.8 11.8 98 0.2 E 15 19 8 10 - - 0.0
25/11:00pm 12.4 10.3 11.3 93 0.6 E 13 15 7 8 - - 0.0
25/10:30pm 12.9 11.1 11.0 88 1.1 E 11 15 6 8 - - 0.0
25/10:00pm 13.1 10.9 9.4 78 2.0 E 11 15 6 8 - - 0.0
25/09:30pm 13.0 11.4 8.9 76 2.2 E 7 11 4 6 - - 0.0
25/09:00pm 13.6 11.1 1.3 43 5.6 ENE 4 7 2 4 - - 0.0
25/08:30pm 13.9 11.3 1.2 42 5.8 E 4 6 2 3 - - 0.0
25/08:00pm 14.7 12.6 1.9 42 6.0 E 2 4 1 2 - - 0.0
25/07:30pm 15.4 13.9 5.0 50 5.2 ESE 2 4 1 2 - - 0.0
25/07:00pm 17.7 15.2 1.7 34 7.6 E 4 7 2 4 - - 0.0
25/06:30pm 18.9 17.1 1.0 30 8.5 CALM 0 4 0 2 - - 0.0
25/06:00pm 19.2 16.4 -0.2 27 9.0 W 4 7 2 4 - - 0.0
25/05:30pm 18.6 15.8 -0.7 27 8.8 ESE 4 6 2 3 - - 0.0
25/05:00pm 18.6 15.9 0.2 29 8.6 NE 4 9 2 5 - - 0.0
25/04:30pm 18.7 15.3 -2.3 24 9.3 W 6 7 3 4 - - 0.0
25/04:00pm 19.0 15.7 -1.4 25 9.3 SSW 6 9 3 5 - - 0.0
25/03:30pm 18.9 16.2 0.5 29 8.7 SSW 4 9 2 5 - - 0.0
25/03:00pm 18.5 15.6 -1.3 26 9.0 SW 4 11 2 6 - - 0.0
25/02:30pm - - - - - S 7 11 4 6 - - 0.0
25/02:00pm - - - - - W 4 6 2 3 - - 0.0
25/01:30pm - - - - - S 7 13 4 7 - - 0.0
25/01:00pm - - - - - S 7 15 4 8 - - 0.0
25/12:30pm - - - - - SSW 9 15 5 8 - - 0.0
25/12:00pm - - - - - WSW 6 15 3 8 - - 0.0
25/11:30am - - - - - W 9 17 5 9 - - 0.0
25/11:00am - - - - - WSW 11 26 6 14 - - 0.0
25/10:30am - - - - - SW 11 24 6 13 - - 0.0
25/10:00am - - - - - WSW 9 20 5 11 - - 0.0
25/09:30am - - - - - W 13 26 7 14 - - 0.0
25/09:00am - - - - - W 15 28 8 15 - - 18.8
25/08:30am - - - - - W 13 22 7 12 - - 18.8
25/08:00am - - - - - W 11 20 6 11 - - 18.8
25/07:30am - - - - - W 11 24 6 13 - - 18.8
25/07:00am - - - - - WNW 11 20 6 11 - - 18.8
25/06:30am - - - - - WNW 9 15 5 8 - - 18.8
25/06:00am 14.9 13.2 12.4 85 1.4 WNW 13 26 7 14 - - 18.8
25/05:30am - - - - - W 7 15 4 8 - - 18.8
25/05:00am - - - - - WNW 7 13 4 7 - - 18.8
25/04:30am 15.5 14.5 15.5 100 0.0 W 15 37 8 20 - - 17.4
25/04:00am 15.8 14.9 15.8 100 0.0 W 15 30 8 16 - - 15.2
25/03:30am 15.6 15.0 15.6 100 0.0 WNW 13 28 7 15 - - 14.8
25/03:00am 15.6 15.7 15.6 100 0.0 W 9 20 5 11 - - 14.4
25/02:30am 15.8 14.9 15.8 100 0.0 WNW 15 35 8 19 - - 13.6
25/02:00am - - - - - WNW 11 22 6 12 - - 11.8
25/01:30am 15.7 14.7 15.7 100 0.0 NW 15 24 8 13 - - 11.6
25/01:00am 15.8 15.6 15.8 100 0.0 NW 11 17 6 9 - - 11.2
25/12:30am 15.8 16.4 15.8 100 0.0 WNW 7 15 4 8 - - 10.8
25/12:00am 16.0 15.2 16.0 100 0.0 NW 15 28 8 15 - - 10.0
 
Date/Time
EDT
Temp
°C
App
Temp
°C
Dew
Point
Rel
Hum
%
Delta-T
°C
Wind Press
QNH
hPa
Press
MSL
hPa
Rain
since 9 am
mm
Dir
 
Spd
km/h
Gust
km/h
Spd
kts
Gust
kts
24/11:30pm 16.1 16.0 16.1 100 0.0 NW 11 19 6 10 - - 8.8
24/11:00pm 16.2 15.7 16.0 99 0.1 WNW 13 30 7 16 - - 8.2
24/10:30pm 16.6 16.5 16.1 97 0.3 WNW 11 26 6 14 - - 6.8
24/10:00pm 17.1 16.3 16.1 94 0.6 W 15 30 8 16 - - 5.4
24/09:30pm 18.3 19.0 17.1 93 0.8 W 9 17 5 9 - - 3.2
24/09:00pm 19.3 19.5 16.7 85 1.6 NW 11 24 6 13 - - 2.0
24/08:30pm 21.1 22.0 16.7 76 2.8 NNW 7 15 4 8 - - 1.6
24/08:00pm - - - - - NNW 7 13 4 7 - - 1.6
24/07:30pm - - - - - NNW 13 19 7 10 - - 1.6
24/07:00pm - - - - - NW 6 11 3 6 - - 1.6
24/06:30pm - - - - - NW 7 13 4 7 - - 1.6
24/06:00pm - - - - - WNW 7 13 4 7 - - 1.6
24/05:30pm - - - - - W 9 17 5 9 - - 1.6
24/05:00pm - - - - - WNW 7 13 4 7 - - 1.6
24/04:30pm - - - - - WNW 17 28 9 15 - - 0.2
24/04:00pm - - - - - NW 13 22 7 12 - - 0.0
24/03:30pm - - - - - NW 17 28 9 15 - - 0.0
24/03:00pm - - - - - NW 13 22 7 12 - - 0.0
24/02:30pm - - - - - NNW 17 30 9 16 - - 0.0
24/02:00pm - - - - - NNW 22 37 12 20 - - 0.0
24/01:30pm - - - - - NNW 26 48 14 26 - - 0.0
24/01:00pm - - - - - N 20 33 11 18 - - 0.0
24/12:30pm - - - - - NNW 20 41 11 22 - - 0.0
24/12:00pm - - - - - N 20 39 11 21 - - 0.0
24/11:30am - - - - - N 17 37 9 20 - - 0.0
24/11:00am - - - - - NW 15 28 8 15 - - 0.0
24/10:30am - - - - - NNW 15 35 8 19 - - 0.0
24/10:00am 26.5 25.5 12.2 41 8.7 N 9 15 5 8 - - 0.0
24/09:30am - - - - - NNE 9 15 5 8 - - 0.0
24/09:00am - - - - - NNW 9 19 5 10 - - 0.4
24/08:30am - - - - - N 6 15 3 8 - - 0.4
24/08:00am - - - - - N 6 11 3 6 - - 0.4
24/07:30am - - - - - N 7 15 4 8 - - 0.4
24/07:00am - - - - - NNW 11 17 6 9 - - 0.4
24/06:30am - - - - - NNW 9 15 5 8 - - 0.4
24/06:00am - - - - - WNW 9 17 5 9 - - 0.4
24/05:30am - - - - - WNW 6 13 3 7 - - 0.4
24/05:00am - - - - - N 6 11 3 6 - - 0.4
24/04:30am - - - - - N 9 15 5 8 - - 0.4
24/04:00am - - - - - N 11 17 6 9 - - 0.4
24/03:30am - - - - - N 13 20 7 11 - - 0.4
24/03:00am - - - - - N 15 26 8 14 - - 0.4
24/02:30am - - - - - N 17 24 9 13 - - 0.4
24/02:00am - - - - - N 15 37 8 20 - - 0.4
24/01:30am - - - - - N 15 22 8 12 - - 0.4
24/01:00am - - - - - N 9 15 5 8 - - 0.4
24/12:30am - - - - - N 9 15 5 8 - - 0.4
24/12:00am - - - - - NE 6 9 3 5 - - 0.4

Other Formats:

Comma delimited format used in spreadsheet applications
http://www.bom.gov.au/fwo/IDN60801/IDN60801.94754.axf

JavaScript Object Notation format (JSON) in row-major order
http://www.bom.gov.au/fwo/IDN60801/IDN60801.94754.json